createdAt,value
2022-08-20T00:00:17.600Z,21.75
2022-08-20T00:02:46.434Z,21.76
2022-08-20T00:05:13.404Z,21.75
2022-08-20T00:07:39.323Z,21.81
2022-08-20T00:10:07.900Z,21.79
2022-08-20T00:12:34.295Z,21.85
2022-08-20T00:17:41.544Z,21.66
2022-08-20T00:20:11.794Z,21.78
2022-08-20T00:22:37.748Z,21.72
2022-08-20T00:25:10.712Z,21.68
2022-08-20T00:27:36.697Z,21.68
2022-08-20T00:30:04.538Z,21.73
2022-08-20T00:32:30.570Z,21.65
2022-08-20T00:39:59.580Z,21.81
2022-08-20T00:42:25.547Z,21.67
2022-08-20T00:44:51.426Z,21.74
2022-08-20T00:47:17.410Z,21.65
2022-08-20T00:49:43.990Z,21.66
2022-08-20T00:52:15.188Z,21.64
2022-08-20T00:54:44.439Z,21.60
2022-08-20T01:02:12.702Z,21.61
2022-08-20T01:04:39.051Z,21.61
2022-08-20T01:07:06.370Z,21.56
2022-08-20T01:09:49.973Z,21.49
2022-08-20T01:12:19.448Z,21.61
2022-08-20T01:14:46.755Z,21.46
2022-08-20T01:17:16.482Z,21.65
2022-08-20T01:26:45.312Z,21.79
2022-08-20T01:29:15.216Z,21.70
2022-08-20T01:31:41.979Z,21.69
2022-08-20T01:34:10.443Z,21.65
2022-08-20T01:36:44.265Z,21.53
2022-08-20T01:39:14.930Z,21.52
2022-08-20T01:41:51.892Z,21.58
2022-08-20T01:49:23.646Z,21.47
2022-08-20T01:51:51.119Z,21.53
2022-08-20T01:54:17.721Z,21.57
2022-08-20T01:56:53.590Z,21.65
2022-08-20T01:59:19.678Z,21.55
2022-08-20T02:01:46.903Z,21.52
2022-08-20T02:04:15.389Z,21.49
2022-08-20T02:11:45.045Z,21.61
2022-08-20T02:14:11.060Z,21.55
2022-08-20T02:16:40.566Z,21.57
2022-08-20T02:19:10.850Z,21.41
2022-08-20T02:21:39.586Z,21.47
2022-08-20T02:24:05.974Z,21.36
2022-08-20T02:26:34.803Z,21.44
2022-08-20T02:34:22.203Z,21.46
2022-08-20T02:36:49.164Z,21.43
2022-08-20T02:39:15.080Z,21.41
2022-08-20T02:41:41.164Z,21.47
2022-08-20T02:44:08.138Z,21.49
2022-08-20T02:46:35.116Z,21.50
2022-08-20T02:49:01.124Z,21.47
2022-08-20T02:54:05.165Z,21.55
2022-08-20T02:56:31.255Z,21.57
2022-08-20T02:58:57.126Z,21.55
2022-08-20T03:01:23.093Z,21.56
2022-08-20T03:03:49.327Z,21.49
2022-08-20T03:06:15.974Z,21.50
2022-08-20T03:08:42.530Z,21.52
2022-08-20T03:16:13.082Z,21.42
2022-08-20T03:18:42.532Z,21.46
2022-08-20T03:21:09.896Z,21.34
2022-08-20T03:23:36.804Z,21.28
2022-08-20T03:26:09.091Z,21.27
2022-08-20T03:28:35.205Z,21.30
2022-08-20T03:31:01.353Z,21.25
2022-08-20T03:36:08.223Z,21.22
2022-08-20T03:38:34.717Z,21.17
2022-08-20T03:41:01.653Z,21.27
2022-08-20T03:43:28.114Z,21.26
2022-08-20T03:45:54.011Z,21.26
2022-08-20T03:48:20.795Z,21.22
2022-08-20T03:50:49.029Z,21.24
2022-08-20T03:58:17.705Z,21.19
2022-08-20T04:00:47.480Z,21.08
2022-08-20T04:03:14.473Z,21.19
2022-08-20T04:05:41.400Z,21.30
2022-08-20T04:08:08.857Z,21.26
2022-08-20T04:10:35.134Z,21.27
2022-08-20T04:13:03.155Z,21.15
2022-08-20T04:20:33.971Z,21.19
2022-08-20T04:23:00.063Z,21.19
2022-08-20T04:25:26.270Z,21.12
2022-08-20T04:27:52.938Z,21.25
2022-08-20T04:30:20.209Z,21.22
2022-08-20T04:32:46.127Z,21.13
2022-08-20T04:35:13.843Z,21.02
2022-08-20T04:44:13.882Z,20.92
2022-08-20T04:46:41.779Z,20.95
2022-08-20T04:49:07.682Z,21.61
2022-08-20T04:51:33.865Z,21.81
2022-08-20T04:54:00.805Z,21.84
2022-08-20T04:56:29.633Z,21.03
2022-08-20T04:58:57.632Z,20.71
2022-08-20T05:06:29.541Z,20.63
2022-08-20T05:08:57.126Z,20.61
2022-08-20T05:11:34.845Z,21.20
2022-08-20T05:14:04.664Z,20.96
2022-08-20T05:16:30.486Z,20.98
2022-08-20T05:18:56.438Z,20.94
2022-08-20T05:21:22.346Z,20.83
2022-08-20T05:28:24.982Z,20.98
2022-08-20T05:30:52.037Z,20.79
2022-08-20T05:33:20.606Z,20.74
2022-08-20T05:35:49.089Z,20.71
2022-08-20T05:38:16.880Z,20.72
2022-08-20T05:40:43.757Z,20.68
2022-08-20T05:43:09.791Z,20.55
2022-08-20T05:48:16.024Z,20.62
2022-08-20T05:50:44.325Z,20.56
2022-08-20T05:53:11.506Z,20.47
2022-08-20T05:55:38.806Z,20.54
2022-08-20T05:58:13.210Z,20.56
2022-08-20T06:00:39.252Z,20.63
2022-08-20T06:03:05.139Z,20.65
2022-08-20T06:08:40.621Z,20.85
2022-08-20T06:11:07.347Z,20.87
2022-08-20T06:13:33.742Z,20.96
2022-08-20T06:16:00.618Z,20.81
2022-08-20T06:18:27.999Z,20.66
2022-08-20T06:20:55.295Z,20.66
2022-08-20T06:23:21.566Z,20.57
2022-08-20T06:30:47.151Z,20.58
2022-08-20T06:33:13.229Z,20.61
2022-08-20T06:35:39.355Z,20.49
2022-08-20T06:38:05.295Z,20.67
2022-08-20T06:40:31.306Z,20.70
2022-08-20T06:42:57.431Z,20.65
2022-08-20T06:45:27.328Z,20.72
2022-08-20T06:52:58.594Z,20.72
2022-08-20T06:55:25.158Z,20.70
2022-08-20T06:57:59.076Z,20.87
2022-08-20T07:00:25.615Z,20.89
2022-08-20T07:02:51.533Z,20.82
2022-08-20T07:05:17.533Z,20.94
2022-08-20T07:07:44.547Z,20.86
2022-08-20T07:12:50.178Z,20.93
2022-08-20T07:15:17.534Z,20.92
2022-08-20T07:17:48.785Z,20.98
2022-08-20T07:20:14.898Z,20.78
2022-08-20T07:22:40.795Z,20.86
2022-08-20T07:25:11.167Z,20.91
2022-08-20T07:27:37.567Z,20.84
2022-08-20T07:35:11.219Z,20.69
2022-08-20T07:37:38.278Z,20.63
2022-08-20T07:40:05.599Z,20.57
2022-08-20T07:42:31.562Z,20.68
2022-08-20T07:44:57.529Z,20.92
2022-08-20T07:47:23.432Z,20.70
2022-08-20T07:49:49.400Z,20.67
2022-08-20T07:57:19.020Z,20.96
2022-08-20T07:59:44.945Z,20.79
2022-08-20T08:02:12.224Z,20.83
2022-08-20T08:04:38.588Z,20.84
2022-08-20T08:07:05.210Z,20.90
2022-08-20T08:09:33.230Z,20.87
2022-08-20T08:11:59.610Z,20.64
2022-08-20T08:21:00.273Z,21.00
2022-08-20T08:23:31.724Z,21.00
2022-08-20T08:25:58.401Z,20.92
2022-08-20T08:28:24.376Z,20.89
2022-08-20T08:30:50.284Z,21.55
2022-08-20T08:33:21.981Z,21.22
2022-08-20T08:35:47.892Z,21.08
2022-08-20T08:43:17.379Z,21.01
2022-08-20T08:45:55.628Z,20.97
2022-08-20T08:48:29.287Z,20.97
2022-08-20T08:50:55.329Z,20.87
2022-08-20T08:53:25.312Z,20.94
2022-08-20T08:55:51.422Z,21.12
2022-08-20T08:58:18.008Z,21.22
2022-08-20T09:03:27.427Z,21.48
2022-08-20T09:05:55.488Z,21.50
2022-08-20T09:08:25.067Z,21.49
2022-08-20T09:10:51.000Z,21.53
2022-08-20T09:13:16.991Z,21.48
2022-08-20T09:15:43.103Z,21.51
2022-08-20T09:18:09.067Z,21.57
2022-08-20T09:25:44.131Z,21.78
2022-08-20T09:28:10.180Z,21.86
2022-08-20T09:30:38.581Z,21.79
2022-08-20T09:33:04.878Z,21.77
2022-08-20T09:35:32.316Z,21.68
2022-08-20T09:38:05.180Z,21.69
2022-08-20T09:57:05.422Z,25.44
2022-08-20T09:59:33.381Z,25.30
2022-08-20T10:05:43.839Z,28.66
2022-08-20T10:08:13.067Z,31.08
2022-08-20T10:10:39.208Z,31.72
2022-08-20T10:13:06.749Z,30.41
2022-08-20T10:15:35.632Z,30.42
2022-08-20T10:18:03.199Z,31.48
2022-08-20T10:20:31.097Z,30.88
2022-08-20T10:27:40.056Z,31.85
2022-08-20T10:30:07.550Z,33.19
2022-08-20T10:32:34.059Z,33.77
2022-08-20T10:35:00.762Z,33.93
2022-08-20T10:37:27.067Z,34.22
2022-08-20T10:39:54.327Z,34.57
2022-08-20T10:42:20.876Z,33.53
2022-08-20T10:44:47.772Z,33.55
2022-08-20T10:52:21.943Z,34.42
2022-08-20T10:54:48.528Z,35.27
2022-08-20T10:57:17.740Z,35.26
2022-08-20T10:59:46.382Z,34.60
2022-08-20T11:02:12.555Z,33.47
2022-08-20T11:04:38.734Z,34.63
2022-08-20T11:07:13.800Z,35.75
2022-08-20T11:12:35.531Z,36.32
2022-08-20T11:15:01.500Z,36.84
2022-08-20T11:17:31.120Z,37.20
2022-08-20T11:19:59.535Z,37.74
2022-08-20T11:22:26.300Z,37.82
2022-08-20T11:24:52.764Z,37.97
2022-08-20T11:27:23.082Z,37.76
2022-08-20T11:34:55.618Z,38.43
2022-08-20T11:37:23.821Z,38.60
2022-08-20T11:39:50.253Z,38.57
2022-08-20T11:42:16.683Z,38.92
2022-08-20T11:44:42.759Z,38.86
2022-08-20T11:47:21.141Z,38.29
2022-08-20T11:49:47.191Z,37.92
2022-08-20T11:52:13.951Z,37.93
2022-08-20T11:59:56.021Z,37.23
2022-08-20T12:02:22.259Z,37.81
2022-08-20T12:04:48.692Z,38.55
2022-08-20T12:07:17.383Z,39.24
2022-08-20T12:09:51.400Z,38.79
2022-08-20T12:12:21.619Z,37.15
2022-08-20T12:14:49.047Z,37.54
2022-08-20T12:20:28.678Z,35.77
2022-08-20T12:22:54.732Z,36.67
2022-08-20T12:25:20.712Z,37.11
2022-08-20T12:27:46.844Z,37.56
2022-08-20T12:30:15.389Z,37.68
2022-08-20T12:32:41.556Z,38.19
2022-08-20T12:35:09.242Z,36.15
2022-08-20T12:42:46.318Z,35.98
2022-08-20T12:45:12.287Z,35.48
2022-08-20T12:47:45.052Z,36.07
2022-08-20T12:50:13.125Z,36.72
2022-08-20T12:52:40.340Z,37.31
2022-08-20T12:55:08.714Z,37.60
2022-08-20T12:57:37.319Z,37.45
2022-08-20T13:03:12.176Z,35.81
2022-08-20T13:05:38.708Z,34.29
2022-08-20T13:08:11.677Z,35.13
2022-08-20T13:10:44.387Z,36.31
2022-08-20T13:13:14.822Z,36.74
2022-08-20T13:15:46.170Z,37.30
2022-08-20T13:18:18.834Z,38.16
2022-08-20T13:23:36.591Z,38.47
2022-08-20T13:26:06.433Z,38.79
2022-08-20T13:28:32.453Z,38.83
2022-08-20T13:31:00.640Z,38.40
2022-08-20T13:33:27.329Z,38.97
2022-08-20T13:35:58.404Z,38.00
2022-08-20T13:38:24.804Z,37.21
2022-08-20T13:43:52.462Z,33.88
2022-08-20T13:46:21.751Z,32.54
2022-08-20T13:48:48.266Z,31.70
2022-08-20T13:51:14.711Z,32.64
2022-08-20T13:53:45.329Z,33.28
2022-08-20T13:56:13.330Z,32.74
2022-08-20T13:58:39.726Z,32.23
2022-08-20T14:01:06.838Z,32.58
2022-08-20T14:08:36.285Z,31.74
2022-08-20T14:11:02.648Z,31.61
2022-08-20T14:13:28.692Z,31.15
2022-08-20T14:15:55.198Z,31.37
2022-08-20T14:18:21.864Z,31.64
2022-08-20T14:20:48.538Z,31.53
2022-08-20T14:23:18.407Z,31.78
2022-08-20T14:30:07.105Z,33.16
2022-08-20T14:32:33.095Z,32.77
2022-08-20T14:34:59.767Z,32.41
2022-08-20T14:37:31.549Z,32.36
2022-08-20T14:39:59.093Z,31.89
2022-08-20T14:42:26.634Z,31.10
2022-08-20T14:44:53.681Z,30.57
2022-08-20T14:50:19.316Z,28.90
2022-08-20T14:52:45.838Z,30.00
2022-08-20T14:55:14.434Z,30.66
2022-08-20T14:57:41.056Z,31.06
2022-08-20T15:00:10.030Z,31.00
2022-08-20T15:02:37.447Z,31.02
2022-08-20T15:05:04.269Z,30.94
2022-08-20T15:11:43.380Z,30.49
2022-08-20T15:14:09.661Z,30.33
2022-08-20T15:16:36.197Z,30.08
2022-08-20T15:19:03.041Z,29.53
2022-08-20T15:21:28.937Z,29.10
2022-08-20T15:24:18.974Z,28.95
2022-08-20T15:26:46.265Z,29.03
2022-08-20T15:34:17.832Z,29.12
2022-08-20T15:36:44.294Z,29.10
2022-08-20T15:39:10.189Z,28.97
2022-08-20T15:41:36.106Z,28.96
2022-08-20T15:44:02.445Z,29.05
2022-08-20T15:46:31.115Z,29.01
2022-08-20T15:49:02.050Z,28.66
2022-08-20T15:56:03.232Z,28.57
2022-08-20T15:58:36.799Z,28.15
2022-08-20T16:01:25.406Z,27.92
2022-08-20T16:04:13.317Z,28.06
2022-08-20T16:06:41.973Z,27.81
2022-08-20T16:09:37.354Z,27.87
2022-08-20T16:17:08.025Z,27.04
2022-08-20T16:19:43.881Z,27.02
2022-08-20T16:22:15.019Z,26.86
2022-08-20T16:24:41.043Z,26.99
2022-08-20T16:27:13.358Z,26.92
2022-08-20T16:29:47.014Z,26.99
2022-08-20T16:32:21.540Z,26.98
2022-08-20T16:40:11.864Z,26.93
2022-08-20T16:42:40.483Z,26.65
2022-08-20T16:45:12.889Z,26.93
2022-08-20T16:47:38.951Z,26.77
2022-08-20T16:50:10.096Z,26.70
2022-08-20T16:52:36.017Z,26.55
2022-08-20T16:55:03.124Z,26.58
2022-08-20T17:02:32.329Z,26.59
2022-08-20T17:05:06.686Z,26.80
2022-08-20T17:07:43.239Z,26.95
2022-08-20T17:10:16.101Z,27.04
2022-08-20T17:12:43.144Z,26.99
2022-08-20T17:15:19.416Z,27.11
2022-08-20T17:17:46.018Z,27.02
2022-08-20T17:25:18.249Z,26.61
2022-08-20T17:27:45.551Z,26.27
2022-08-20T17:30:20.465Z,26.28
2022-08-20T17:32:57.570Z,26.11
2022-08-20T17:35:30.022Z,26.04
2022-08-20T17:37:57.070Z,25.92
2022-08-20T17:40:33.783Z,25.86
2022-08-20T17:47:39.062Z,25.63
2022-08-20T17:50:12.118Z,25.59
2022-08-20T17:52:45.706Z,25.50
2022-08-20T17:55:12.278Z,25.40
2022-08-20T17:57:44.213Z,25.37
2022-08-20T18:00:16.637Z,25.26
2022-08-20T18:02:43.383Z,25.15
2022-08-20T18:10:14.445Z,24.86
2022-08-20T18:12:44.365Z,24.82
2022-08-20T18:15:16.539Z,24.67
2022-08-20T18:18:11.071Z,24.65
2022-08-20T18:20:49.625Z,24.47
2022-08-20T18:23:22.606Z,24.49
2022-08-20T18:25:54.383Z,24.42
2022-08-20T18:33:29.712Z,24.32
2022-08-20T18:36:05.364Z,24.18
2022-08-20T18:38:32.032Z,24.08
2022-08-20T18:41:12.633Z,24.10
2022-08-20T18:43:39.732Z,23.81
2022-08-20T18:46:11.963Z,23.85
2022-08-20T18:51:41.736Z,23.57
2022-08-20T18:54:08.177Z,23.54
2022-08-20T18:56:40.256Z,23.25
2022-08-20T18:59:12.620Z,23.18
2022-08-20T19:01:40.980Z,22.89
2022-08-20T19:04:23.009Z,22.81
2022-08-20T19:06:57.335Z,22.63
2022-08-20T19:14:59.113Z,22.45
2022-08-20T19:17:37.088Z,22.39
2022-08-20T19:20:06.051Z,22.24
2022-08-20T19:22:33.433Z,22.16
2022-08-20T19:24:59.593Z,22.06
2022-08-20T19:27:27.382Z,22.02
2022-08-20T19:29:56.728Z,21.88
2022-08-20T19:37:40.215Z,22.16
2022-08-20T19:40:25.698Z,22.27
2022-08-20T19:42:56.014Z,22.20
2022-08-20T19:45:27.461Z,22.05
2022-08-20T19:48:01.283Z,22.05
2022-08-20T19:50:35.775Z,22.06
2022-08-20T19:56:25.810Z,21.63
2022-08-20T19:58:59.694Z,21.50
2022-08-20T20:01:26.353Z,21.42
2022-08-20T20:03:58.269Z,21.29
2022-08-20T20:06:24.893Z,21.12
2022-08-20T20:08:54.209Z,21.01
2022-08-20T20:11:27.295Z,21.09
2022-08-20T20:18:27.054Z,21.07
2022-08-20T20:20:57.474Z,20.71
2022-08-20T20:23:25.677Z,20.60
2022-08-20T20:25:56.575Z,20.43
2022-08-20T20:28:25.785Z,20.33
2022-08-20T20:30:51.930Z,20.29
2022-08-20T20:33:23.534Z,20.22
2022-08-20T20:40:54.567Z,19.97
2022-08-20T20:43:26.013Z,20.07
2022-08-20T20:46:02.996Z,20.00
2022-08-20T20:48:38.760Z,19.88
2022-08-20T20:51:13.805Z,19.75
2022-08-20T20:53:53.369Z,19.65
2022-08-20T20:59:35.033Z,19.38
2022-08-20T21:02:01.356Z,19.25
2022-08-20T21:04:27.400Z,19.26
2022-08-20T21:06:55.977Z,19.11
2022-08-20T21:09:23.329Z,19.01
2022-08-20T21:11:49.852Z,19.15
2022-08-20T21:14:16.712Z,18.94
2022-08-20T21:19:21.916Z,18.82
2022-08-20T21:21:47.912Z,18.81
2022-08-20T21:24:13.928Z,18.70
2022-08-20T21:26:40.370Z,18.54
2022-08-20T21:29:08.492Z,18.50
2022-08-20T21:31:39.828Z,18.40
2022-08-20T21:34:11.298Z,18.38
2022-08-20T21:39:18.155Z,18.40
2022-08-20T21:41:44.483Z,18.29
2022-08-20T21:44:22.111Z,18.25
2022-08-20T21:46:52.090Z,18.12
2022-08-20T21:49:18.490Z,18.12
2022-08-20T21:51:44.523Z,17.96
2022-08-20T21:54:10.621Z,17.92
2022-08-20T22:01:38.826Z,17.71
2022-08-20T22:04:05.140Z,17.58
2022-08-20T22:06:31.790Z,17.56
2022-08-20T22:08:58.248Z,17.61
2022-08-20T22:11:24.172Z,17.43
2022-08-20T22:13:50.514Z,17.45
2022-08-20T22:16:18.541Z,17.63
2022-08-20T22:21:39.851Z,17.53
2022-08-20T22:24:08.142Z,17.41
2022-08-20T22:26:37.385Z,17.32
2022-08-20T22:29:04.286Z,17.40
2022-08-20T22:31:34.152Z,17.38
2022-08-20T22:34:00.884Z,17.18
2022-08-20T22:36:27.481Z,17.12
2022-08-20T22:43:57.414Z,16.99
2022-08-20T22:46:26.822Z,17.12
2022-08-20T22:48:53.345Z,16.96
2022-08-20T22:51:21.944Z,16.84
2022-08-20T22:53:48.789Z,16.79
2022-08-20T22:56:19.942Z,16.78
2022-08-20T22:58:47.811Z,16.92
2022-08-20T23:06:19.322Z,16.67
2022-08-20T23:08:45.258Z,16.68
2022-08-20T23:11:12.096Z,16.87
2022-08-20T23:13:38.009Z,16.75
2022-08-20T23:16:05.944Z,16.64
2022-08-20T23:18:32.129Z,16.53
2022-08-20T23:20:58.034Z,16.61
2022-08-20T23:26:01.714Z,16.51
2022-08-20T23:28:27.788Z,16.62
2022-08-20T23:30:53.669Z,16.49
2022-08-20T23:33:19.676Z,16.60
2022-08-20T23:35:46.048Z,16.44
2022-08-20T23:38:12.616Z,16.45
2022-08-20T23:40:38.534Z,16.23
2022-08-20T23:46:20.199Z,16.33
2022-08-20T23:48:46.111Z,16.33
2022-08-20T23:51:12.031Z,16.32
2022-08-20T23:53:38.083Z,16.39
2022-08-20T23:56:04.227Z,16.31
2022-08-20T23:58:30.101Z,16.20
